Time;durP1;ratioP1;P1;durP2;ratioP2;P2;SDS_P1;SDS_P2;PMS_P1;PMS_P2;Temp;Humidity;BMP_temperature;BMP_pressure;BME280_temperature;BME280_humidity;BME280_pressure;Samples;Min_cycle;Max_cycle;Signal;HPM_P1;HPM_P2
2024/01/20 00:03:18;;;;;;;15.15;6.85;;;0.90;99.90;;;;;;10062872;28;20091;-68
2024/01/20 00:08:09;;;;;;;14.65;7.28;;;0.90;99.90;;;;;;10048423;28;20029;-68
2024/01/20 00:12:59;;;;;;;18.15;7.28;;;0.80;99.90;;;;;;10055017;28;20522;-67
2024/01/20 00:17:50;;;;;;;18.75;8.40;;;0.70;99.90;;;;;;10057230;28;20384;-66
2024/01/20 00:22:42;;;;;;;19.77;8.38;;;0.70;99.90;;;;;;10056043;28;20049;-64
2024/01/20 00:27:32;;;;;;;20.83;7.75;;;0.60;99.90;;;;;;10056851;28;20048;-65
2024/01/20 00:32:23;;;;;;;16.15;7.60;;;0.70;99.90;;;;;;10056431;28;20025;-65
2024/01/20 00:37:17;;;;;;;16.17;9.10;;;0.60;99.90;;;;;;10056666;28;20041;-64
2024/01/20 00:42:07;;;;;;;14.63;7.50;;;0.60;99.90;;;;;;10056333;28;20025;-64
2024/01/20 00:46:58;;;;;;;20.05;7.28;;;0.50;99.90;;;;;;10056313;28;20045;-65
2024/01/20 00:51:49;;;;;;;19.10;7.22;;;0.50;99.90;;;;;;10056180;28;20569;-70
2024/01/20 00:56:39;;;;;;;14.50;6.95;;;0.50;99.90;;;;;;10056536;28;20030;-69
2024/01/20 01:01:30;;;;;;;15.50;7.30;;;0.60;99.90;;;;;;10055745;28;20025;-67
2024/01/20 01:06:20;;;;;;;16.15;7.00;;;0.60;99.90;;;;;;10057963;28;20049;-66
2024/01/20 01:11:11;;;;;;;13.27;7.43;;;0.50;99.90;;;;;;10053421;28;20029;-67
2024/01/20 01:16:03;;;;;;;19.75;8.00;;;0.50;99.90;;;;;;10055149;28;20041;-65
2024/01/20 01:20:53;;;;;;;16.25;6.85;;;0.50;99.90;;;;;;10055566;28;20052;-67
2024/01/20 01:25:44;;;;;;;10.18;6.70;;;0.50;99.90;;;;;;10052084;28;20045;-66
2024/01/20 01:30:34;;;;;;;16.73;7.28;;;0.30;99.90;;;;;;10049415;28;20045;-67
2024/01/20 01:35:25;;;;;;;16.15;8.75;;;0.40;99.90;;;;;;10054113;28;20022;-66
2024/01/20 01:40:16;;;;;;;14.30;7.47;;;0.30;99.90;;;;;;10053253;28;20033;-67
2024/01/20 01:45:07;;;;;;;16.40;6.35;;;0.30;99.90;;;;;;10056429;28;20029;-67
2024/01/20 01:49:58;;;;;;;18.27;7.53;;;0.20;99.90;;;;;;10054907;28;20077;-66
2024/01/20 01:54:49;;;;;;;15.35;7.30;;;0.10;99.90;;;;;;10083081;28;20037;-66
2024/01/20 01:59:40;;;;;;;14.15;7.43;;;0.10;99.90;;;;;;10054632;28;20022;-66
2024/01/20 02:04:31;;;;;;;17.02;6.75;;;0.10;99.90;;;;;;10054488;28;20681;-65
2024/01/20 02:09:23;;;;;;;17.52;7.65;;;0.30;99.90;;;;;;10054611;28;20032;-65
2024/01/20 02:14:14;;;;;;;10.93;6.10;;;0.40;99.90;;;;;;10054009;28;20044;-65
2024/01/20 02:19:05;;;;;;;15.15;7.47;;;0.40;99.90;;;;;;10052608;28;20028;-65
2024/01/20 02:23:58;;;;;;;11.80;6.60;;;0.30;99.90;;;;;;10050775;28;20102;-66
2024/01/20 02:28:48;;;;;;;17.83;8.25;;;0.20;99.90;;;;;;10057175;28;20025;-65
2024/01/20 02:33:39;;;;;;;15.50;6.65;;;0.10;99.90;;;;;;10060704;28;20034;-66
2024/01/20 02:38:29;;;;;;;18.38;7.47;;;0.00;99.90;;;;;;10061480;28;20034;-67
2024/01/20 02:43:20;;;;;;;14.80;7.35;;;0.10;99.90;;;;;;10060409;28;20042;-68
2024/01/20 02:48:11;;;;;;;14.13;7.07;;;0.00;99.90;;;;;;10060381;28;20041;-68
2024/01/20 02:53:01;;;;;;;18.52;8.18;;;-0.10;99.90;;;;;;10060418;28;20026;-67
2024/01/20 02:57:52;;;;;;;14.80;7.10;;;0.00;99.90;;;;;;10054164;28;20376;-66
2024/01/20 03:02:43;;;;;;;17.95;7.57;;;0.00;99.90;;;;;;10053902;28;20048;-68
2024/01/20 03:07:33;;;;;;;11.07;5.80;;;0.00;99.90;;;;;;10057232;28;20037;-66
2024/01/20 03:12:24;;;;;;;15.80;7.05;;;-0.10;99.90;;;;;;10059635;28;20029;-66
2024/01/20 03:17:14;;;;;;;14.75;6.47;;;-0.10;99.90;;;;;;10058965;28;20021;-66
2024/01/20 03:22:05;;;;;;;11.88;6.38;;;-0.10;99.90;;;;;;10054537;28;20053;-66
2024/01/20 03:26:56;;;;;;;15.90;6.60;;;-0.10;99.90;;;;;;10059995;28;20139;-69
2024/01/20 03:31:47;;;;;;;17.50;6.97;;;-0.10;99.90;;;;;;10058689;28;20018;-68
2024/01/20 03:36:38;;;;;;;18.08;6.30;;;-0.20;99.90;;;;;;10057642;28;20569;-68
2024/01/20 03:41:29;;;;;;;17.33;6.85;;;-0.30;99.90;;;;;;10056990;28;20108;-69
2024/01/20 03:46:20;;;;;;;17.10;7.85;;;-0.20;99.90;;;;;;10058681;28;20029;-67
2024/01/20 03:51:10;;;;;;;16.88;7.38;;;-0.20;99.90;;;;;;10058723;28;20740;-67
2024/01/20 03:56:02;;;;;;;21.50;7.90;;;-0.30;99.90;;;;;;10058296;28;20598;-66
2024/01/20 04:00:52;;;;;;;18.90;8.05;;;-0.40;99.90;;;;;;10056572;28;20021;-67
2024/01/20 04:05:43;;;;;;;16.42;7.35;;;-0.30;99.90;;;;;;10056736;28;20041;-66
2024/01/20 04:10:34;;;;;;;16.63;8.00;;;-0.40;99.90;;;;;;10058242;28;20538;-66
2024/01/20 04:15:24;;;;;;;13.40;6.85;;;-0.50;99.90;;;;;;10057188;28;20046;-67
2024/01/20 04:20:15;;;;;;;16.55;7.65;;;-0.40;99.90;;;;;;10056304;28;20121;-66
2024/01/20 04:25:06;;;;;;;17.63;7.40;;;-0.40;99.90;;;;;;10056122;28;20038;-65
2024/01/20 04:29:57;;;;;;;15.40;7.28;;;-0.50;99.90;;;;;;10054811;28;20033;-63
2024/01/20 04:34:47;;;;;;;16.08;7.55;;;-0.60;99.90;;;;;;10056528;28;20593;-65
2024/01/20 04:39:38;;;;;;;16.58;7.43;;;-0.60;99.90;;;;;;10056883;28;20792;-65
2024/01/20 04:44:29;;;;;;;15.32;6.85;;;-0.60;99.90;;;;;;10056343;28;20147;-66
2024/01/20 04:49:19;;;;;;;17.85;7.45;;;-0.60;99.90;;;;;;10055846;28;20490;-69
2024/01/20 04:54:10;;;;;;;17.30;6.97;;;-0.60;99.90;;;;;;10056223;28;20514;-66
2024/01/20 04:59:00;;;;;;;13.43;6.85;;;-0.70;99.90;;;;;;10056569;28;20538;-66
2024/01/20 05:03:51;;;;;;;13.65;6.40;;;-0.70;99.90;;;;;;10054671;28;20124;-67
2024/01/20 05:08:42;;;;;;;12.88;5.43;;;-0.70;99.90;;;;;;10056615;28;20036;-65
2024/01/20 05:13:33;;;;;;;12.15;5.78;;;-0.80;99.90;;;;;;10055394;28;20065;-67
2024/01/20 05:18:23;;;;;;;14.55;6.30;;;-0.80;99.90;;;;;;10056474;28;20095;-65
2024/01/20 05:23:14;;;;;;;15.27;6.30;;;-0.80;99.90;;;;;;10055145;28;20045;-65
2024/01/20 05:28:05;;;;;;;13.73;5.88;;;-0.90;99.90;;;;;;10055694;28;20427;-67
2024/01/20 05:32:55;;;;;;;11.27;5.63;;;-0.90;99.90;;;;;;10055232;28;20076;-66
2024/01/20 05:37:46;;;;;;;12.90;6.68;;;-0.90;99.90;;;;;;10055205;28;20028;-67
2024/01/20 05:42:37;;;;;;;14.00;6.90;;;-0.90;99.90;;;;;;10051996;28;20033;-66
2024/01/20 05:47:27;;;;;;;13.27;5.75;;;-0.90;99.90;;;;;;10043418;28;20029;-69
2024/01/20 05:52:18;;;;;;;16.80;6.63;;;-1.00;99.90;;;;;;10054848;28;20042;-66
2024/01/20 05:57:09;;;;;;;13.23;5.68;;;-1.00;99.90;;;;;;10054132;28;20529;-67
2024/01/20 06:02:00;;;;;;;12.60;5.47;;;-1.00;99.90;;;;;;10060779;28;20040;-68
2024/01/20 06:06:50;;;;;;;12.43;5.50;;;-1.00;99.90;;;;;;10062384;28;20087;-69
2024/01/20 06:11:41;;;;;;;16.55;6.07;;;-1.00;99.90;;;;;;10061792;28;20469;-66
2024/01/20 06:16:33;;;;;;;14.00;6.22;;;-1.00;99.90;;;;;;10061924;28;20025;-68
2024/01/20 06:21:24;;;;;;;12.13;6.30;;;-0.90;99.90;;;;;;10061553;28;20045;-69
2024/01/20 06:26:15;;;;;;;12.93;6.25;;;-0.80;99.90;;;;;;10061556;28;21432;-69
2024/01/20 06:31:05;;;;;;;16.45;6.50;;;-0.80;99.90;;;;;;10060805;28;20444;-67
2024/01/20 06:35:56;;;;;;;15.38;6.97;;;-0.90;99.90;;;;;;10061249;28;20034;-66
2024/01/20 06:40:46;;;;;;;16.70;8.07;;;-0.80;99.90;;;;;;10062290;28;20517;-68
2024/01/20 06:45:37;;;;;;;15.75;7.20;;;-0.90;99.90;;;;;;10057275;28;20148;-66
2024/01/20 06:50:28;;;;;;;16.50;6.57;;;-0.90;99.90;;;;;;10059075;28;20131;-65
2024/01/20 06:55:18;;;;;;;12.75;6.63;;;-0.90;99.90;;;;;;10059208;28;20458;-68
2024/01/20 07:00:10;;;;;;;12.35;6.15;;;-0.90;99.90;;;;;;10060120;28;20031;-67
2024/01/20 07:05:00;;;;;;;18.20;7.40;;;-1.20;99.90;;;;;;10059486;28;20129;-68
2024/01/20 07:09:51;;;;;;;16.88;7.22;;;-1.40;99.90;;;;;;10059859;28;20579;-68
2024/01/20 07:14:45;;;;;;;14.35;6.57;;;-1.30;99.90;;;;;;10060106;28;20046;-68
2024/01/20 07:19:35;;;;;;;11.48;6.55;;;-1.40;99.90;;;;;;10059892;28;20037;-68
2024/01/20 07:24:27;;;;;;;13.95;6.28;;;-1.50;99.90;;;;;;10057399;28;20060;-68
2024/01/20 07:29:18;;;;;;;12.60;5.13;;;-1.50;99.90;;;;;;10050168;28;20025;-68
2024/01/20 07:34:09;;;;;;;10.90;5.75;;;-1.50;99.90;;;;;;10058611;28;20033;-68
2024/01/20 07:38:59;;;;;;;19.13;6.18;;;-1.50;99.90;;;;;;10058657;28;20106;-67
2024/01/20 07:43:50;;;;;;;11.82;6.40;;;-1.70;99.90;;;;;;10058464;28;20124;-66
2024/01/20 07:48:42;;;;;;;15.27;5.95;;;-1.60;99.90;;;;;;10059903;28;20025;-67
2024/01/20 07:53:33;;;;;;;12.77;7.13;;;-1.60;99.90;;;;;;10058177;28;20057;-68
2024/01/20 07:58:23;;;;;;;12.57;6.57;;;-1.70;99.90;;;;;;10058246;28;20021;-66
2024/01/20 08:03:14;;;;;;;15.63;6.90;;;-1.70;99.90;;;;;;10058263;28;20095;-67
2024/01/20 08:08:05;;;;;;;10.23;5.30;;;-1.80;99.90;;;;;;10058555;28;20499;-68
2024/01/20 08:12:56;;;;;;;14.30;6.22;;;-1.70;99.90;;;;;;10055813;28;20025;-66
2024/01/20 08:17:46;;;;;;;14.65;6.15;;;-1.60;99.90;;;;;;10057377;28;20477;-66
2024/01/20 08:22:37;;;;;;;21.58;7.30;;;-1.60;99.90;;;;;;10056654;28;20084;-65
2024/01/20 08:27:27;;;;;;;18.92;7.63;;;-1.50;99.90;;;;;;10057357;28;20661;-68
2024/01/20 08:32:18;;;;;;;14.57;6.05;;;-1.60;99.90;;;;;;10053001;28;20427;-66
2024/01/20 08:37:09;;;;;;;16.20;7.30;;;-1.70;99.90;;;;;;10057881;28;20515;-66
2024/01/20 08:41:59;;;;;;;19.17;6.10;;;-1.80;99.90;;;;;;10056142;28;20406;-67
2024/01/20 08:46:50;;;;;;;13.48;6.97;;;-1.80;99.90;;;;;;10056092;28;20518;-65
2024/01/20 08:51:40;;;;;;;22.52;6.78;;;-1.80;99.90;;;;;;10056113;28;20018;-66
2024/01/20 08:56:31;;;;;;;15.48;8.15;;;-1.70;99.90;;;;;;10056131;28;20104;-66
2024/01/20 09:01:22;;;;;;;23.08;8.00;;;-1.70;99.90;;;;;;10055009;28;20025;-67
2024/01/20 09:06:13;;;;;;;19.25;7.63;;;-1.70;99.90;;;;;;10055154;28;20128;-68
2024/01/20 09:11:04;;;;;;;17.00;7.78;;;-1.60;99.90;;;;;;10055559;28;20037;-68
2024/01/20 09:15:55;;;;;;;21.98;8.65;;;-1.60;99.90;;;;;;10055714;28;20517;-67
2024/01/20 09:20:45;;;;;;;18.20;6.63;;;-1.60;99.90;;;;;;10055669;28;20045;-67
2024/01/20 09:25:36;;;;;;;18.08;7.97;;;-1.50;99.90;;;;;;10055351;28;20038;-67
2024/01/20 09:30:27;;;;;;;22.90;8.88;;;-1.60;99.90;;;;;;10056423;28;20506;-68
2024/01/20 09:35:17;;;;;;;17.83;7.05;;;-1.60;99.90;;;;;;10060280;28;20078;-68
2024/01/20 09:40:09;;;;;;;18.42;7.80;;;-1.50;99.90;;;;;;10061657;28;20119;-66
2024/01/20 09:44:59;;;;;;;21.33;7.38;;;-1.50;99.90;;;;;;10062736;28;20049;-66
2024/01/20 09:49:50;;;;;;;13.55;6.68;;;-1.60;99.90;;;;;;10063204;28;20034;-65
2024/01/20 09:55:24;;;;;;;21.15;7.45;;;-1.40;99.90;;;;;;10062580;28;20078;-64
2024/01/20 10:00:16;;;;;;;21.48;8.23;;;-1.30;99.90;;;;;;10063078;28;20034;-66
2024/01/20 10:05:10;;;;;;;16.63;7.78;;;-1.30;99.90;;;;;;10093348;28;20041;-66
2024/01/20 10:10:02;;;;;;;29.70;9.63;;;-1.20;99.90;;;;;;10063892;28;20020;-64
2024/01/20 10:14:53;;;;;;;17.25;7.88;;;-1.20;99.90;;;;;;10061071;28;20478;-67
2024/01/20 10:19:43;;;;;;;22.67;8.68;;;-1.20;99.90;;;;;;10061805;28;20525;-67
2024/01/20 10:24:34;;;;;;;18.77;8.40;;;-1.10;99.90;;;;;;10061217;28;20493;-68
2024/01/20 10:29:25;;;;;;;16.63;8.45;;;-1.10;99.90;;;;;;10061355;28;20021;-68
2024/01/20 10:34:16;;;;;;;21.95;9.10;;;-1.30;99.90;;;;;;10060923;28;20511;-67
2024/01/20 10:39:08;;;;;;;18.50;8.02;;;-1.30;99.90;;;;;;10061119;28;20029;-69
2024/01/20 10:44:04;;;;;;;21.80;8.23;;;-1.20;99.90;;;;;;10063581;28;20069;-67
2024/01/20 10:48:58;;;;;;;24.02;9.25;;;-1.10;99.90;;;;;;10061161;28;20037;-68
2024/01/20 10:53:51;;;;;;;21.15;9.73;;;-1.00;99.90;;;;;;10069401;28;20632;-67
2024/01/20 10:58:48;;;;;;;24.08;8.65;;;-1.00;99.90;;;;;;10060161;28;20049;-68
2024/01/20 11:03:39;;;;;;;28.15;9.43;;;-1.00;99.90;;;;;;10058264;28;20060;-67
2024/01/20 11:08:31;;;;;;;27.58;11.65;;;-1.00;99.90;;;;;;10060942;28;20025;-67
2024/01/20 11:13:27;;;;;;;24.42;9.95;;;-0.80;99.90;;;;;;10059335;28;20052;-67
2024/01/20 11:18:20;;;;;;;23.30;8.93;;;-0.80;99.90;;;;;;10060083;28;20025;-66
2024/01/20 11:23:10;;;;;;;29.67;10.10;;;-0.80;99.90;;;;;;10058593;28;20520;-67
2024/01/20 11:28:01;;;;;;;25.23;8.80;;;-0.90;99.90;;;;;;10059215;28;20025;-67
2024/01/20 11:32:52;;;;;;;23.98;8.95;;;-0.80;99.90;;;;;;10059189;28;20026;-67
2024/01/20 11:37:43;;;;;;;21.15;8.32;;;-0.80;99.90;;;;;;10059022;28;20449;-68
2024/01/20 11:42:35;;;;;;;27.80;8.75;;;-0.80;99.90;;;;;;10060515;28;20032;-68
2024/01/20 11:47:25;;;;;;;24.20;10.07;;;-0.70;99.90;;;;;;10055500;28;20168;-68
2024/01/20 11:52:16;;;;;;;22.42;10.70;;;-0.60;99.90;;;;;;10056679;28;20033;-66
2024/01/20 11:57:06;;;;;;;28.63;10.40;;;-0.80;99.90;;;;;;10057256;28;20042;-67
2024/01/20 12:01:57;;;;;;;29.80;10.55;;;-0.80;99.90;;;;;;10055371;28;20372;-68
2024/01/20 12:06:48;;;;;;;20.85;9.57;;;-0.80;99.90;;;;;;10058219;28;20045;-67
2024/01/20 12:11:40;;;;;;;25.20;10.25;;;-0.80;99.90;;;;;;10057726;28;20157;-66
2024/01/20 12:16:31;;;;;;;21.58;10.35;;;-0.80;99.90;;;;;;10057396;28;20497;-65
2024/01/20 12:21:22;;;;;;;21.08;8.90;;;-0.70;99.90;;;;;;10058265;28;20071;-67
2024/01/20 12:26:14;;;;;;;24.48;10.18;;;-0.60;99.90;;;;;;10039069;28;20044;-67
2024/01/20 12:31:05;;;;;;;27.17;10.75;;;-0.60;99.90;;;;;;10052297;28;20491;-67
2024/01/20 12:35:56;;;;;;;26.35;8.98;;;-0.60;99.90;;;;;;10056571;28;20056;-67
2024/01/20 12:40:46;;;;;;;19.98;8.57;;;-0.50;99.90;;;;;;10056636;28;20029;-67
2024/01/20 12:45:37;;;;;;;23.48;9.10;;;-0.40;99.90;;;;;;10056762;28;20107;-66
2024/01/20 12:50:28;;;;;;;19.80;7.90;;;-0.40;99.90;;;;;;10050804;28;20026;-66
2024/01/20 12:55:18;;;;;;;17.27;7.15;;;-0.20;99.90;;;;;;10055906;28;20029;-68
2024/01/20 13:00:09;;;;;;;15.23;7.03;;;-0.10;99.90;;;;;;10055568;28;20032;-65
2024/01/20 13:05:00;;;;;;;20.08;8.27;;;-0.10;99.90;;;;;;10056124;28;20450;-67
2024/01/20 13:09:51;;;;;;;18.42;7.90;;;0.00;99.90;;;;;;10054947;28;20156;-68
2024/01/20 13:14:41;;;;;;;15.15;6.85;;;0.10;99.90;;;;;;10052695;28;20229;-68
2024/01/20 13:19:32;;;;;;;16.33;6.43;;;0.10;99.90;;;;;;10056084;28;20802;-66
2024/01/20 13:24:23;;;;;;;18.08;6.78;;;0.10;99.90;;;;;;10055564;28;20103;-66
2024/01/20 13:29:14;;;;;;;14.45;6.07;;;0.10;99.90;;;;;;10053953;28;20541;-66
2024/01/20 13:34:05;;;;;;;12.95;5.97;;;0.10;99.90;;;;;;10055271;28;20033;-66
2024/01/20 13:38:56;;;;;;;12.10;6.18;;;0.20;99.90;;;;;;10055542;28;20033;-66
2024/01/20 13:43:47;;;;;;;14.15;5.82;;;0.20;99.90;;;;;;10055332;28;20037;-67
2024/01/20 13:48:38;;;;;;;15.32;6.35;;;0.20;99.90;;;;;;10055971;28;20060;-68
2024/01/20 13:53:29;;;;;;;12.48;6.40;;;0.30;99.90;;;;;;10061062;28;20026;-69
2024/01/20 13:58:19;;;;;;;18.02;6.60;;;0.30;99.90;;;;;;10055192;28;20029;-67
2024/01/20 14:03:10;;;;;;;12.55;6.32;;;0.30;99.90;;;;;;10054956;28;20038;-66
2024/01/20 14:08:00;;;;;;;15.52;6.80;;;0.30;99.90;;;;;;10055349;28;20224;-66
2024/01/20 14:12:51;;;;;;;17.30;6.55;;;0.30;99.90;;;;;;10054679;28;20057;-68
2024/01/20 14:17:42;;;;;;;16.67;6.22;;;0.40;99.90;;;;;;10055105;28;20052;-67
2024/01/20 14:22:32;;;;;;;18.88;7.38;;;0.40;99.90;;;;;;10060251;28;20120;-65
2024/01/20 14:27:23;;;;;;;18.55;7.20;;;0.40;99.90;;;;;;10061616;28;20128;-66
2024/01/20 14:32:14;;;;;;;13.63;7.28;;;0.50;99.90;;;;;;10056088;28;20130;-66
2024/01/20 14:37:04;;;;;;;19.38;7.68;;;0.50;99.90;;;;;;10060753;28;20034;-65
2024/01/20 14:41:55;;;;;;;12.18;6.80;;;0.50;99.90;;;;;;10060654;28;20033;-66
2024/01/20 14:46:46;;;;;;;14.45;8.30;;;0.40;99.90;;;;;;10060803;28;20499;-66
2024/01/20 14:51:36;;;;;;;16.48;8.15;;;0.50;99.90;;;;;;10060809;28;20035;-67
2024/01/20 14:56:31;;;;;;;16.60;7.65;;;0.40;99.90;;;;;;10060354;28;20029;-68
2024/01/20 15:01:22;;;;;;;17.27;7.25;;;0.30;99.90;;;;;;10060266;28;20013;-67
2024/01/20 15:06:13;;;;;;;13.25;5.50;;;0.20;99.90;;;;;;10059985;28;20072;-67
2024/01/20 15:11:03;;;;;;;15.57;6.35;;;0.10;99.90;;;;;;10062031;28;20091;-67
2024/01/20 15:15:54;;;;;;;13.70;6.80;;;0.20;99.90;;;;;;10060552;28;20506;-65
2024/01/20 15:20:45;;;;;;;14.52;6.75;;;0.00;99.90;;;;;;10059345;28;20119;-66
2024/01/20 15:25:36;;;;;;;16.90;8.30;;;0.00;99.90;;;;;;10059369;28;20040;-67
2024/01/20 15:30:27;;;;;;;16.25;7.15;;;0.10;99.90;;;;;;10059170;28;20038;-67
2024/01/20 15:35:18;;;;;;;20.33;8.50;;;0.00;99.90;;;;;;10059546;28;20025;-66
2024/01/20 15:40:09;;;;;;;16.88;7.32;;;0.00;99.90;;;;;;10064491;28;20030;-69
2024/01/20 15:44:59;;;;;;;24.50;9.18;;;-0.10;99.90;;;;;;10059506;28;20772;-67
2024/01/20 15:49:50;;;;;;;18.80;7.43;;;-0.10;99.90;;;;;;10058691;28;20108;-68
2024/01/20 15:54:41;;;;;;;19.05;8.73;;;-0.10;99.90;;;;;;10058711;28;20026;-67
2024/01/20 15:59:31;;;;;;;18.45;8.27;;;0.00;99.90;;;;;;10058602;28;20033;-65
2024/01/20 16:04:22;;;;;;;21.90;8.35;;;-0.10;99.90;;;;;;10056312;28;20037;-66
2024/01/20 16:09:16;;;;;;;25.13;9.50;;;0.00;99.90;;;;;;10058627;28;20671;-67
2024/01/20 16:14:06;;;;;;;25.52;9.23;;;0.00;99.90;;;;;;10057918;28;20021;-67
2024/01/20 16:18:57;;;;;;;14.52;8.15;;;0.00;99.90;;;;;;10057876;28;20037;-67
2024/01/20 16:23:49;;;;;;;15.20;7.25;;;-0.10;99.90;;;;;;10056790;28;20045;-66
2024/01/20 16:28:40;;;;;;;14.52;7.45;;;-0.10;99.90;;;;;;10056210;28;20086;-66
2024/01/20 16:33:30;;;;;;;16.45;7.78;;;-0.10;99.90;;;;;;10056793;28;20049;-66
2024/01/20 16:38:21;;;;;;;16.38;7.38;;;-0.10;99.90;;;;;;10056406;28;20455;-66
2024/01/20 16:43:12;;;;;;;16.63;7.82;;;-0.10;99.90;;;;;;10055783;28;20073;-66
2024/01/20 16:48:03;;;;;;;16.58;7.55;;;-0.10;99.90;;;;;;10056903;28;20455;-67
2024/01/20 16:52:53;;;;;;;16.10;7.32;;;-0.10;99.90;;;;;;10055918;28;20022;-66
2024/01/20 16:57:44;;;;;;;19.23;9.10;;;-0.10;99.90;;;;;;10056071;28;20033;-64
2024/01/20 17:02:35;;;;;;;18.48;7.88;;;-0.10;99.90;;;;;;10056020;28;20026;-68
2024/01/20 17:07:25;;;;;;;20.23;8.65;;;-0.10;99.90;;;;;;10055851;28;20033;-66
2024/01/20 17:12:16;;;;;;;20.23;10.10;;;-0.10;99.90;;;;;;10055467;28;21539;-66
2024/01/20 17:17:07;;;;;;;21.30;9.05;;;-0.10;99.90;;;;;;10055908;28;20037;-66
2024/01/20 17:21:58;;;;;;;22.45;8.73;;;-0.10;99.90;;;;;;10048475;28;20052;-65
2024/01/20 17:26:48;;;;;;;29.30;11.38;;;-0.20;99.90;;;;;;10056092;28;20050;-66
2024/01/20 17:31:39;;;;;;;26.90;10.93;;;-0.30;99.90;;;;;;10053323;28;20521;-66
2024/01/20 17:36:30;;;;;;;24.05;11.02;;;-0.40;99.90;;;;;;10053831;28;20091;-65
2024/01/20 17:41:20;;;;;;;25.73;11.43;;;-0.40;99.90;;;;;;10055307;28;20029;-64
2024/01/20 17:46:12;;;;;;;20.27;8.55;;;-0.30;99.90;;;;;;10055042;28;20041;-67
2024/01/20 17:51:02;;;;;;;19.95;9.43;;;-0.30;99.90;;;;;;10055754;28;20383;-65
2024/01/20 17:55:53;;;;;;;29.70;10.15;;;-0.20;99.90;;;;;;10059678;28;20048;-66
2024/01/20 18:00:44;;;;;;;23.45;11.63;;;-0.20;99.90;;;;;;10063066;28;20033;-65
2024/01/20 18:05:35;;;;;;;25.48;10.38;;;-0.10;99.90;;;;;;10062417;28;20046;-66
2024/01/20 18:10:26;;;;;;;21.98;9.45;;;-0.20;99.90;;;;;;10062290;28;20536;-66
2024/01/20 18:15:17;;;;;;;24.23;10.73;;;-0.10;99.90;;;;;;10062180;28;20029;-66
2024/01/20 18:20:07;;;;;;;24.15;10.75;;;-0.10;99.90;;;;;;10061751;28;20045;-65
2024/01/20 18:24:59;;;;;;;26.75;10.93;;;0.00;99.90;;;;;;10061814;28;20037;-65
2024/01/20 18:29:50;;;;;;;25.13;10.43;;;-0.10;99.90;;;;;;10062078;28;20117;-67
2024/01/20 18:34:40;;;;;;;29.25;11.88;;;-0.10;99.90;;;;;;10094650;28;20577;-65
2024/01/20 18:39:32;;;;;;;25.70;10.15;;;-0.10;99.90;;;;;;10062715;28;20030;-66
2024/01/20 18:44:22;;;;;;;24.25;9.82;;;-0.20;99.90;;;;;;10062017;28;20527;-66
2024/01/20 18:49:13;;;;;;;21.17;9.25;;;-0.20;99.90;;;;;;10061283;28;20038;-65
2024/01/20 18:54:03;;;;;;;24.80;11.00;;;-0.20;99.90;;;;;;10060646;28;20036;-65
2024/01/20 18:58:54;;;;;;;25.02;11.35;;;-0.20;99.90;;;;;;10056910;28;20399;-66
2024/01/20 19:03:45;;;;;;;29.92;12.50;;;-0.20;99.90;;;;;;10058257;28;20034;-66
2024/01/20 19:08:35;;;;;;;34.30;12.30;;;-0.20;99.90;;;;;;10059115;28;20096;-66
2024/01/20 19:13:26;;;;;;;25.83;9.57;;;-0.20;99.90;;;;;;10057104;28;20029;-66
2024/01/20 19:18:16;;;;;;;28.25;11.63;;;-0.20;99.90;;;;;;10066860;28;20033;-66
2024/01/20 19:23:07;;;;;;;31.33;12.07;;;-0.20;99.90;;;;;;10059766;28;20045;-67
2024/01/20 19:27:58;;;;;;;28.20;11.52;;;-0.20;99.90;;;;;;10059512;28;20041;-67
2024/01/20 19:32:49;;;;;;;32.47;10.98;;;-0.20;99.90;;;;;;10058696;28;20021;-67
2024/01/20 19:37:39;;;;;;;30.95;11.10;;;-0.20;99.90;;;;;;10059146;28;20160;-66
2024/01/20 19:42:30;;;;;;;22.67;11.65;;;-0.30;99.90;;;;;;10059175;28;20124;-66
2024/01/20 19:47:20;;;;;;;27.17;10.85;;;-0.20;99.90;;;;;;10058637;28;20125;-67
2024/01/20 19:52:11;;;;;;;26.80;10.23;;;-0.20;99.90;;;;;;10056775;28;20036;-66
2024/01/20 19:57:03;;;;;;;26.52;11.43;;;-0.20;99.90;;;;;;10059031;28;20044;-66
2024/01/20 20:01:54;;;;;;;25.13;10.48;;;-0.30;99.90;;;;;;10038717;28;20033;-66
2024/01/20 20:06:50;;;;;;;28.38;10.63;;;-0.20;99.90;;;;;;10057571;28;20042;-66
2024/01/20 20:11:41;;;;;;;28.60;11.00;;;-0.10;99.90;;;;;;10057965;28;20108;-66
2024/01/20 20:16:31;;;;;;;26.25;10.63;;;-0.10;99.90;;;;;;10055640;28;20113;-65
2024/01/20 20:21:22;;;;;;;25.50;11.40;;;-0.10;99.90;;;;;;10052835;28;20053;-67
2024/01/20 20:26:13;;;;;;;25.75;10.98;;;-0.10;99.90;;;;;;10057068;28;20038;-66
2024/01/20 20:31:06;;;;;;;31.23;12.32;;;-0.10;99.90;;;;;;10088631;28;20025;-66
2024/01/20 20:35:56;;;;;;;21.77;11.13;;;-0.10;99.90;;;;;;10056351;28;20084;-67
2024/01/20 20:40:47;;;;;;;27.30;11.70;;;-0.20;99.90;;;;;;10057040;28;20025;-67
2024/01/20 20:45:38;;;;;;;32.58;12.02;;;-0.20;99.90;;;;;;10055290;28;20075;-66
2024/01/20 20:50:28;;;;;;;26.33;11.00;;;0.00;99.90;;;;;;10056714;28;20057;-65
2024/01/20 20:55:19;;;;;;;28.88;10.13;;;-0.10;99.90;;;;;;10056286;28;20140;-67
2024/01/20 21:00:14;;;;;;;23.73;10.60;;;-0.10;99.90;;;;;;10060729;28;20025;-67
2024/01/20 21:05:05;;;;;;;32.35;11.90;;;0.00;99.90;;;;;;10056152;28;20041;-66
2024/01/20 21:09:55;;;;;;;32.28;12.75;;;0.00;99.90;;;;;;10051430;28;20041;-66
2024/01/20 21:14:46;;;;;;;32.88;12.90;;;0.00;99.90;;;;;;10055841;28;20109;-67
2024/01/20 21:19:37;;;;;;;35.55;12.77;;;-0.10;99.90;;;;;;10055789;28;20042;-68
2024/01/20 21:24:28;;;;;;;31.80;11.85;;;-0.10;99.90;;;;;;10056068;28;20040;-68
2024/01/20 21:29:19;;;;;;;36.90;11.95;;;-0.20;99.90;;;;;;10059384;28;20408;-65
2024/01/20 21:34:10;;;;;;;34.63;12.35;;;-0.30;99.90;;;;;;10062151;28;20037;-66
2024/01/20 21:39:09;;;;;;;27.27;11.65;;;-0.20;99.90;;;;;;10061299;28;20561;-66
2024/01/20 21:44:01;;;;;;;28.02;11.05;;;-0.40;99.90;;;;;;10062883;28;20041;-67
2024/01/20 21:48:52;;;;;;;27.23;10.27;;;-0.40;99.90;;;;;;10062231;28;20026;-68
2024/01/20 21:53:42;;;;;;;27.55;9.27;;;-0.50;99.90;;;;;;10062792;28;20037;-67
2024/01/20 21:58:33;;;;;;;22.38;10.23;;;-0.50;99.90;;;;;;10063055;28;20454;-66
2024/01/20 22:03:24;;;;;;;24.88;8.70;;;-0.50;99.90;;;;;;10061833;28;20030;-66
2024/01/20 22:08:15;;;;;;;24.08;9.85;;;-0.70;99.90;;;;;;10062654;28;20711;-66
2024/01/20 22:13:06;;;;;;;28.38;10.25;;;-0.60;99.90;;;;;;10062280;28;20033;-66
2024/01/20 22:17:56;;;;;;;22.35;8.68;;;-0.60;99.90;;;;;;10062145;28;20042;-66
2024/01/20 22:22:47;;;;;;;20.85;9.27;;;-0.50;99.90;;;;;;10061121;28;20119;-67
2024/01/20 22:27:37;;;;;;;24.58;9.60;;;-0.50;99.90;;;;;;10061588;28;20037;-67
2024/01/20 22:32:28;;;;;;;23.88;8.40;;;-0.50;99.90;;;;;;10061432;28;20021;-65
2024/01/20 22:37:19;;;;;;;25.40;11.20;;;-0.60;99.90;;;;;;10061353;28;20450;-66
2024/01/20 22:42:09;;;;;;;30.90;9.18;;;-0.70;99.90;;;;;;10060094;28;20095;-67
2024/01/20 22:47:00;;;;;;;31.63;9.70;;;-0.70;99.90;;;;;;10061237;28;20041;-67
2024/01/20 22:51:51;;;;;;;22.20;9.63;;;-0.70;99.90;;;;;;10060598;28;20095;-67
2024/01/20 22:56:41;;;;;;;25.40;9.70;;;-0.60;99.90;;;;;;10060477;28;20029;-67
2024/01/20 23:01:32;;;;;;;29.23;10.98;;;-0.60;99.90;;;;;;10053649;28;20745;-65
2024/01/20 23:06:23;;;;;;;30.75;10.25;;;-0.60;99.90;;;;;;10059487;28;20078;-67
2024/01/20 23:11:14;;;;;;;36.45;11.93;;;-0.60;99.90;;;;;;10059897;28;20598;-67
2024/01/20 23:16:05;;;;;;;35.08;12.45;;;-0.50;99.90;;;;;;10059222;28;20072;-67
2024/01/20 23:20:55;;;;;;;30.77;11.55;;;-0.50;99.90;;;;;;10059343;28;20749;-68
2024/01/20 23:25:46;;;;;;;34.42;12.50;;;-0.40;99.90;;;;;;10059610;28;20045;-65
2024/01/20 23:30:37;;;;;;;29.55;12.30;;;-0.50;99.90;;;;;;10091467;28;20017;-67
2024/01/20 23:35:27;;;;;;;29.88;12.38;;;-0.40;99.90;;;;;;10059415;28;20108;-66
2024/01/20 23:40:18;;;;;;;36.85;11.95;;;-0.40;99.90;;;;;;10059009;28;20029;-66
2024/01/20 23:45:09;;;;;;;36.95;12.35;;;-0.30;99.90;;;;;;10058622;28;20072;-66
2024/01/20 23:50:00;;;;;;;23.75;11.48;;;-0.40;99.90;;;;;;10058010;28;20061;-70
2024/01/20 23:54:51;;;;;;;30.52;11.50;;;-0.30;99.90;;;;;;10058355;28;20500;-70
2024/01/20 23:59:45;;;;;;;29.40;12.02;;;-0.40;99.90;;;;;;10057979;28;20030;-66
